Time;durP1;ratioP1;P1;durP2;ratioP2;P2;SDS_P1;SDS_P2;PMS_P1;PMS_P2;Temp;Humidity;BMP_temperature;BMP_pressure;BME280_temperature;BME280_humidity;BME280_pressure;Samples;Min_cycle;Max_cycle;Signal;HPM_P1;HPM_P2
2022/09/01 00:00:58;;;;;;;;;;;;;;;15.11;100.00;-14627.06;5052384;28;20427;-75
2022/09/01 00:03:25;;;;;;;;;;;;;;;15.08;100.00;-16933.53;5052867;28;20011;-75
2022/09/01 00:05:53;;;;;;;;;;;;;;;15.06;100.00;-18909.31;5052707;28;19976;-74
2022/09/01 00:08:19;;;;;;;;;;;;;;;15.01;100.00;-21212.47;5051739;28;20388;-75
2022/09/01 00:10:45;;;;;;;;;;;;;;;14.97;100.00;-23514.00;5052809;28;19917;-74
2022/09/01 00:13:10;;;;;;;;;;;;;;;14.98;100.00;-25486.56;5052539;28;20359;-78
2022/09/01 00:15:35;;;;;;;;;;;;;;;14.89;100.00;-25486.00;5053120;28;19939;-74
2022/09/01 00:18:01;;;;;;;;;;;;;;;14.86;100.00;-25485.28;5052283;28;19917;-76
2022/09/01 00:20:26;;;;;;;;;;;;;;;14.80;100.00;-25483.38;5053030;28;19917;-75
2022/09/01 00:22:52;;;;;;;;;;;;;;;14.83;100.00;-25484.25;5051431;28;20427;-75
2022/09/01 00:25:18;;;;;;;;;;;;;;;14.77;100.00;-25482.50;5052035;28;19947;-78
2022/09/01 00:27:44;;;;;;;;;;;;;;;14.72;100.00;-25481.34;5052586;28;19920;-80
2022/09/01 00:30:10;;;;;;;;;;;;;;;14.74;100.00;-25481.78;5051398;28;19917;-75
2022/09/01 00:32:45;;;;;;;;;;;;;;;14.73;100.00;-25481.50;5051960;28;20374;-83
2022/09/01 00:35:11;;;;;;;;;;;;;;;14.67;100.00;-25479.88;5052173;28;19921;-85
2022/09/01 00:37:36;;;;;;;;;;;;;;;14.61;100.00;-25478.00;5053053;28;19951;-74
2022/09/01 00:40:02;;;;;;;;;;;;;;;14.60;100.00;-25477.84;5051870;28;19965;-85
2022/09/01 00:42:29;;;;;;;;;;;;;;;14.62;100.00;-25478.44;5052615;28;19962;-80
2022/09/01 00:44:55;;;;;;;;;;;;;;;14.61;100.00;-25478.00;5053389;28;19963;-74
2022/09/01 00:47:20;;;;;;;;;;;;;;;14.55;100.00;-25476.53;5053481;28;20532;-73
2022/09/01 00:49:46;;;;;;;;;;;;;;;14.55;100.00;-25476.38;5052865;28;19917;-83
2022/09/01 00:52:40;;;;;;;;;;;;;;;14.50;100.00;-25475.06;5053719;28;19916;-81
2022/09/01 00:55:11;;;;;;;;;;;;;;;14.52;100.00;-25475.66;5049685;28;19917;-83
2022/09/01 00:57:37;;;;;;;;;;;;;;;14.49;100.00;-25474.78;5052714;28;19917;-74
2022/09/01 01:00:10;;;;;;;;;;;;;;;14.52;100.00;-25475.66;5051849;28;19917;-74
2022/09/01 01:02:37;;;;;;;;;;;;;;;14.49;100.00;-25474.63;5050851;28;19921;-73
2022/09/01 01:05:03;;;;;;;;;;;;;;;14.43;100.00;-25472.91;5049687;28;19940;-74
2022/09/01 01:07:28;;;;;;;;;;;;;;;14.40;100.00;-25472.03;5051279;28;19917;-75
2022/09/01 01:09:54;;;;;;;;;;;;;;;14.38;100.00;-25471.59;5051286;28;19917;-74
2022/09/01 01:12:20;;;;;;;;;;;;;;;14.37;100.00;-25471.28;5050513;28;20365;-75
2022/09/01 01:14:48;;;;;;;;;;;;;;;14.33;100.00;-25470.13;5051393;28;20319;-74
2022/09/01 01:17:14;;;;;;;;;;;;;;;14.26;100.00;-25468.09;5051000;28;19920;-73
2022/09/01 01:23:04;;;;;;;;;;;;;;;14.17;100.00;-25465.75;5052683;28;19975;-74
2022/09/01 01:25:43;;;;;;;;;;;;;;;14.08;100.00;-25463.13;5050407;28;20377;-73
2022/09/01 01:28:11;;;;;;;;;;;;;;;14.08;100.00;-25463.13;5050462;28;20281;-74
2022/09/01 01:30:38;;;;;;;;;;;;;;;14.02;100.00;-25461.22;5050991;28;19916;-74
2022/09/01 01:33:05;;;;;;;;;;;;;;;14.00;100.00;-25460.94;5051125;28;19917;-74
2022/09/01 01:35:30;;;;;;;;;;;;;;;13.97;100.00;-25460.06;5050834;28;19975;-75
2022/09/01 01:37:56;;;;;;;;;;;;;;;13.94;100.00;-25459.19;5050881;28;19924;-74
2022/09/01 01:40:21;;;;;;;;;;;;;;;13.89;100.00;-25457.72;5050032;28;19956;-76
2022/09/01 01:42:49;;;;;;;;;;;;;;;13.86;100.00;-25456.84;5050598;28;19922;-74
2022/09/01 01:45:16;;;;;;;;;;;;;;;13.83;100.00;-25456.13;5049767;28;19928;-75
2022/09/01 01:47:45;;;;;;;;;;;;;;;13.79;100.00;-25454.81;5050354;28;20420;-73
2022/09/01 01:50:11;;;;;;;;;;;;;;;13.74;100.00;-25453.34;5050051;28;19916;-75
2022/09/01 01:52:36;;;;;;;;;;;;;;;13.73;100.00;-25453.06;5049882;28;19978;-75
2022/09/01 01:55:02;;;;;;;;;;;;;;;13.73;100.00;-25453.06;5049731;28;20316;-75
2022/09/01 01:57:30;;;;;;;;;;;;;;;13.68;100.00;-25451.75;5050728;28;19916;-74
2022/09/01 01:59:56;;;;;;;;;;;;;;;13.69;100.00;-25452.03;5049457;28;19927;-75
2022/09/01 02:02:21;;;;;;;;;;;;;;;13.67;100.00;-25451.47;5050733;28;20007;-74
2022/09/01 02:04:46;;;;;;;;;;;;;;;13.66;100.00;-25451.16;5050244;28;19924;-74
2022/09/01 02:07:12;;;;;;;;;;;;;;;13.63;100.00;-25450.44;5049521;28;20793;-78
2022/09/01 02:09:39;;;;;;;;;;;;;;;13.59;100.00;-25449.28;5050479;28;19966;-75
2022/09/01 02:12:06;;;;;;;;;;;;;;;13.59;100.00;-25449.28;5050225;28;19917;-76
2022/09/01 02:14:32;;;;;;;;;;;;;;;13.57;100.00;-25448.69;5049719;28;19920;-75
2022/09/01 02:16:57;;;;;;;;;;;;;;;13.54;100.00;-25447.66;5050508;28;19917;-75
2022/09/01 02:19:22;;;;;;;;;;;;;;;13.53;100.00;-25447.38;5050104;28;20011;-75
2022/09/01 02:21:53;;;;;;;;;;;;;;;13.53;100.00;-25447.53;5050290;28;19917;-74
2022/09/01 02:24:19;;;;;;;;;;;;;;;13.52;100.00;-25447.09;5050568;28;19920;-78
2022/09/01 02:26:47;;;;;;;;;;;;;;;13.52;100.00;-25447.22;5050353;28;19924;-75
2022/09/01 02:29:17;;;;;;;;;;;;;;;13.48;100.00;-25445.91;5049340;28;20019;-74
2022/09/01 02:31:44;;;;;;;;;;;;;;;13.47;100.00;-25445.78;5050385;28;19928;-73
2022/09/01 02:34:12;;;;;;;;;;;;;;;13.49;100.00;-25446.22;5049799;28;19921;-73
2022/09/01 02:36:46;;;;;;;;;;;;;;;13.50;100.00;-25446.50;5049225;28;19929;-74
2022/09/01 02:39:12;;;;;;;;;;;;;;;13.45;100.00;-25445.34;5050952;28;19917;-75
2022/09/01 02:41:38;;;;;;;;;;;;;;;13.41;100.00;-25444.03;5049767;28;19999;-76
2022/09/01 02:44:10;;;;;;;;;;;;;;;13.41;100.00;-25444.03;5049301;28;20365;-74
2022/09/01 02:46:40;;;;;;;;;;;;;;;13.40;100.00;-25443.72;5049957;28;19916;-73
2022/09/01 02:49:06;;;;;;;;;;;;;;;13.40;100.00;-25443.72;5049117;28;20387;-81
2022/09/01 02:51:32;;;;;;;;;;;;;;;13.41;100.00;-25444.16;5050139;28;19996;-83
2022/09/01 02:53:59;;;;;;;;;;;;;;;13.42;100.00;-25444.31;5050179;28;20308;-80
2022/09/01 02:56:26;;;;;;;;;;;;;;;13.38;100.00;-25443.16;5050190;28;19917;-75
2022/09/01 02:58:51;;;;;;;;;;;;;;;13.42;100.00;-25444.31;5053154;28;19917;-84
2022/09/01 03:01:20;;;;;;;;;;;;;;;13.38;100.00;-25443.16;5053440;28;20255;-74
2022/09/01 03:03:47;;;;;;;;;;;;;;;13.37;100.00;-25443.00;5053225;28;20516;-74
2022/09/01 03:06:13;;;;;;;;;;;;;;;13.37;100.00;-25443.00;5054598;28;19923;-85
2022/09/01 03:08:38;;;;;;;;;;;;;;;13.35;100.00;-25442.28;5055005;28;19927;-75
2022/09/01 03:11:09;;;;;;;;;;;;;;;13.38;100.00;-25443.28;5054138;28;20019;-84
2022/09/01 03:13:42;;;;;;;;;;;;;;;13.40;100.00;-25443.72;5054165;28;19983;-84
2022/09/01 03:16:08;;;;;;;;;;;;;;;13.38;100.00;-25443.28;5055196;28;19956;-82
2022/09/01 03:18:33;;;;;;;;;;;;;;;13.42;100.00;-25444.31;5053093;28;19967;-75
2022/09/01 03:20:59;;;;;;;;;;;;;;;13.39;100.00;-25443.44;5053341;28;20392;-80
2022/09/01 03:23:30;;;;;;;;;;;;;;;13.41;100.00;-25444.16;5053692;28;19983;-83
2022/09/01 03:25:56;;;;;;;;;;;;;;;13.41;100.00;-25444.03;5053838;28;19967;-77
2022/09/01 03:28:21;;;;;;;;;;;;;;;13.41;100.00;-25444.16;5054266;28;19924;-75
2022/09/01 03:30:48;;;;;;;;;;;;;;;13.39;100.00;-25443.44;5054485;28;20258;-82
2022/09/01 03:33:15;;;;;;;;;;;;;;;13.36;100.00;-25442.56;5054359;28;19944;-84
2022/09/01 03:35:41;;;;;;;;;;;;;;;13.39;100.00;-25443.44;5055384;28;19974;-82
2022/09/01 03:38:06;;;;;;;;;;;;;;;13.38;100.00;-25443.28;5054652;28;19917;-83
2022/09/01 03:40:33;;;;;;;;;;;;;;;13.35;100.00;-25442.28;5055433;28;19939;-84
2022/09/01 03:43:00;;;;;;;;;;;;;;;13.33;100.00;-25441.69;5054926;28;19924;-79
2022/09/01 03:45:26;;;;;;;;;;;;;;;13.32;100.00;-25441.53;5054173;28;19921;-83
2022/09/01 03:47:53;;;;;;;;;;;;;;;13.28;100.00;-25440.50;5054172;28;19944;-83
2022/09/01 03:50:19;;;;;;;;;;;;;;;13.25;100.00;-25439.47;5054284;28;19920;-80
2022/09/01 03:52:52;;;;;;;;;;;;;;;13.24;100.00;-25439.19;5054625;28;20066;-83
2022/09/01 03:55:26;;;;;;;;;;;;;;;13.24;100.00;-25439.34;5054548;28;20060;-84
2022/09/01 03:57:52;;;;;;;;;;;;;;;13.21;100.00;-25438.31;5054887;28;19917;-82
2022/09/01 04:00:22;;;;;;;;;;;;;;;13.18;100.00;-25437.59;5054813;28;19917;-84
2022/09/01 04:02:52;;;;;;;;;;;;;;;13.15;100.00;-25436.72;5054296;28;19924;-85
2022/09/01 04:05:23;;;;;;;;;;;;;;;13.20;100.00;-25438.03;5054417;28;19920;-80
2022/09/01 04:07:49;;;;;;;;;;;;;;;13.18;100.00;-25437.59;5053485;28;19913;-83
2022/09/01 04:10:16;;;;;;;;;;;;;;;13.19;100.00;-25437.88;5053806;28;20418;-84
2022/09/01 04:12:44;;;;;;;;;;;;;;;13.22;100.00;-25438.75;5054654;28;20476;-84
2022/09/01 04:15:11;;;;;;;;;;;;;;;13.18;100.00;-25437.59;5055028;28;20432;-83
2022/09/01 04:20:20;;;;;;;;;;;;;;;13.14;100.00;-25436.28;5052646;28;19927;-76
2022/09/01 04:22:49;;;;;;;;;;;;;;;13.16;100.00;-25436.84;5051385;28;20356;-74
2022/09/01 04:25:15;;;;;;;;;;;;;;;13.18;100.00;-25437.59;5051994;28;19959;-74
2022/09/01 04:27:40;;;;;;;;;;;;;;;13.20;100.00;-25438.16;5050934;28;19967;-74
2022/09/01 04:30:09;;;;;;;;;;;;;;;13.22;100.00;-25438.59;5050874;28;19921;-76
2022/09/01 04:32:36;;;;;;;;;;;;;;;13.27;100.00;-25440.06;5052043;28;19917;-76
2022/09/01 04:35:02;;;;;;;;;;;;;;;13.27;100.00;-25440.06;5049202;28;19948;-77
2022/09/01 04:37:28;;;;;;;;;;;;;;;13.31;100.00;-25441.22;5052395;28;20351;-74
2022/09/01 04:39:55;;;;;;;;;;;;;;;13.38;100.00;-25443.28;5052027;28;19936;-75
2022/09/01 04:42:22;;;;;;;;;;;;;;;13.39;100.00;-25443.44;5051734;28;20262;-72
2022/09/01 04:44:48;;;;;;;;;;;;;;;13.43;100.00;-25444.59;5052985;28;19928;-76
2022/09/01 04:47:18;;;;;;;;;;;;;;;13.43;100.00;-25444.75;5052156;28;19917;-76
2022/09/01 04:49:44;;;;;;;;;;;;;;;13.47;100.00;-25445.78;5051850;28;20374;-76
2022/09/01 04:52:09;;;;;;;;;;;;;;;13.50;100.00;-25446.50;5052356;28;19924;-75
2022/09/01 04:54:37;;;;;;;;;;;;;;;13.45;100.00;-25445.34;5052938;28;19920;-76
2022/09/01 04:57:03;;;;;;;;;;;;;;;13.51;100.00;-25446.78;5051612;28;19917;-74
2022/09/01 04:59:29;;;;;;;;;;;;;;;13.52;100.00;-25447.09;5052135;28;20007;-73
2022/09/01 05:01:57;;;;;;;;;;;;;;;13.53;100.00;-25447.38;5051123;28;20305;-73
2022/09/01 05:04:26;;;;;;;;;;;;;;;13.55;100.00;-25448.09;5051204;28;19917;-72
2022/09/01 05:06:58;;;;;;;;;;;;;;;13.58;100.00;-25448.97;5051389;28;20015;-77
2022/09/01 05:09:24;;;;;;;;;;;;;;;13.55;100.00;-25448.09;5051274;28;19917;-79
2022/09/01 05:11:50;;;;;;;;;;;;;;;13.58;100.00;-25448.84;5051126;28;20277;-73
2022/09/01 05:14:19;;;;;;;;;;;;;;;13.58;100.00;-25448.97;5051146;28;19916;-74
2022/09/01 05:16:44;;;;;;;;;;;;;;;13.62;100.00;-25450.00;5051305;28;19978;-73
2022/09/01 05:19:13;;;;;;;;;;;;;;;13.65;100.00;-25450.88;5051291;28;20373;-74
2022/09/01 05:21:39;;;;;;;;;;;;;;;13.69;100.00;-25451.91;5051141;28;19955;-75
2022/09/01 05:24:06;;;;;;;;;;;;;;;13.72;100.00;-24794.94;5050842;28;19917;-77
2022/09/01 05:26:33;;;;;;;;;;;;;;;13.96;100.00;-23160.25;5051576;28;19916;-83
2022/09/01 05:29:00;;;;;;;;;;;;;;;14.65;100.00;-20546.81;5051606;28;19924;-74
2022/09/01 05:31:27;;;;;;;;;;;;;;;15.33;100.00;-14959.31;5050913;28;20373;-74
2022/09/01 05:33:52;;;;;;;;;;;;;;;16.03;100.00;-5051.38;5051633;28;19970;-74
2022/09/01 05:36:19;;;;;;;;;;;;;;;16.16;100.00;13531.63;5050847;28;19921;-77
2022/09/01 05:38:46;;;;;;;;;;;;;;;16.33;100.00;33552.06;5050691;28;19952;-75
2022/09/01 05:41:13;;;;;;;;;;;;;;;16.33;100.00;53669.34;5051261;28;19912;-81
2022/09/01 05:43:44;;;;;;;;;;;;;;;16.41;100.00;75251.19;5051707;28;19917;-80
2022/09/01 05:46:09;;;;;;;;;;;;;;;16.66;100.00;91887.28;5050006;28;20015;-75
2022/09/01 05:48:38;;;;;;;;;;;;;;;16.74;100.00;126002.28;5050454;28;20039;-74
2022/09/01 05:51:05;;;;;;;;;;;;;;;16.57;100.00;146898.63;5050172;28;19917;-77
2022/09/01 05:53:32;;;;;;;;;;;;;;;16.62;100.00;146911.38;5050179;28;19916;-74
2022/09/01 05:55:58;;;;;;;;;;;;;;;16.63;100.00;146915.22;5050156;28;19943;-76
2022/09/01 05:58:24;;;;;;;;;;;;;;;17.17;100.00;147049.47;5049875;28;19917;-76
2022/09/01 06:00:52;;;;;;;;;;;;;;;17.62;100.00;147159.38;5050643;28;19979;-82
2022/09/01 06:03:20;;;;;;;;;;;;;;;17.83;100.00;147213.09;5050541;28;20323;-84
2022/09/01 06:05:47;;;;;;;;;;;;;;;16.66;100.00;146921.63;5051211;28;19917;-83
2022/09/01 06:08:14;;;;;;;;;;;;;;;15.92;100.00;146738.94;5051274;28;19979;-79
2022/09/01 06:10:40;;;;;;;;;;;;;;;15.51;100.00;146635.50;5052690;28;19917;-80
2022/09/01 06:13:09;;;;;;;;;;;;;;;15.43;100.00;146616.34;5050623;28;19917;-83
2022/09/01 06:15:37;;;;;;;;;;;;;;;15.25;100.00;146571.66;5051126;28;19944;-82
2022/09/01 06:18:04;;;;;;;;;;;;;;;15.12;100.00;146539.75;5050473;28;19921;-82
2022/09/01 06:20:29;;;;;;;;;;;;;;;15.11;100.00;146535.94;5050570;28;20369;-82
2022/09/01 06:22:58;;;;;;;;;;;;;;;15.24;100.00;146570.41;5051033;28;19920;-78
2022/09/01 06:25:29;;;;;;;;;;;;;;;15.17;100.00;146552.50;5050943;28;19917;-78
2022/09/01 06:27:54;;;;;;;;;;;;;;;15.06;100.00;146524.44;5051169;28;19912;-75
2022/09/01 06:30:21;;;;;;;;;;;;;;;15.00;100.00;146509.13;5051682;28;19917;-81
2022/09/01 06:32:48;;;;;;;;;;;;;;;15.09;100.00;146532.09;5054003;28;19917;-83
2022/09/01 06:35:17;;;;;;;;;;;;;;;15.34;100.00;146594.63;5054723;28;19932;-83
2022/09/01 06:37:43;;;;;;;;;;;;;;;15.36;100.00;146598.47;5055831;28;20366;-81
2022/09/01 06:40:15;;;;;;;;;;;;;;;15.98;100.00;146753.00;5056418;28;19981;-77
2022/09/01 06:42:42;;;;;;;;;;;;;;;15.99;100.00;146755.56;5052904;28;20383;-75
2022/09/01 06:45:09;;;;;;;;;;;;;;;16.16;100.00;146797.72;5053778;28;19917;-77
2022/09/01 06:47:34;;;;;;;;;;;;;;;16.23;100.00;146814.31;5054127;28;19967;-78
2022/09/01 06:50:00;;;;;;;;;;;;;;;16.14;100.00;146792.56;5054139;28;19917;-76
2022/09/01 06:52:25;;;;;;;;;;;;;;;16.11;100.00;146786.22;5054559;28;20283;-79
2022/09/01 06:54:54;;;;;;;;;;;;;;;15.94;100.00;146744.06;5054450;28;19917;-80
2022/09/01 06:57:21;;;;;;;;;;;;;;;15.94;100.00;146742.75;5054078;28;19917;-80
2022/09/01 06:59:46;;;;;;;;;;;;;;;16.00;100.00;146758.09;5054330;28;20436;-74
2022/09/01 07:02:15;;;;;;;;;;;;;;;16.09;100.00;146779.81;5053725;28;19921;-77
2022/09/01 07:04:42;;;;;;;;;;;;;;;16.37;100.00;146848.81;5054589;28;19932;-81
2022/09/01 07:07:08;;;;;;;;;;;;;;;16.22;100.00;146811.72;5054217;28;19918;-81
2022/09/01 07:09:34;;;;;;;;;;;;;;;16.61;100.00;146908.81;5053688;28;19917;-83
2022/09/01 07:12:02;;;;;;;;;;;;;;;17.02;100.00;147011.13;5053652;28;19943;-79
2022/09/01 07:14:29;;;;;;;;;;;;;;;16.73;100.00;146939.47;5054320;28;20007;-79
2022/09/01 07:16:55;;;;;;;;;;;;;;;16.82;100.00;146962.47;5053552;28;19913;-77
2022/09/01 07:19:20;;;;;;;;;;;;;;;16.83;100.00;146965.06;5054447;28;20392;-76
2022/09/01 07:21:46;;;;;;;;;;;;;;;16.77;100.00;146949.72;5054171;28;20281;-76
2022/09/01 07:24:14;;;;;;;;;;;;;;;16.71;100.00;146934.38;5053668;28;19917;-76
2022/09/01 07:26:41;;;;;;;;;;;;;;;16.78;100.00;146950.97;5054587;28;19917;-75
2022/09/01 07:29:08;;;;;;;;;;;;;;;16.84;100.00;146966.31;5053884;28;19912;-77
2022/09/01 07:31:37;;;;;;;;;;;;;;;16.81;100.00;146959.97;5053696;28;20024;-81
2022/09/01 07:34:05;;;;;;;;;;;;;;;16.98;100.00;147000.88;5053825;28;19964;-79
2022/09/01 07:36:31;;;;;;;;;;;;;;;17.04;100.00;147016.22;5054262;28;19920;-81
2022/09/01 07:38:56;;;;;;;;;;;;;;;17.07;100.00;147023.88;5053220;28;19923;-82
2022/09/01 07:41:23;;;;;;;;;;;;;;;17.19;100.00;147053.28;5054021;28;19917;-80
2022/09/01 07:43:51;;;;;;;;;;;;;;;17.52;100.00;147136.38;5054037;28;19927;-75
2022/09/01 07:46:17;;;;;;;;;;;;;;;18.19;100.00;147301.41;5052675;28;20462;-76
2022/09/01 07:48:42;;;;;;;;;;;;;;;18.75;100.00;147440.84;5053514;28;19917;-79
2022/09/01 07:51:10;;;;;;;;;;;;;;;19.15;100.00;147541.97;5052753;28;19928;-80
2022/09/01 07:53:37;;;;;;;;;;;;;;;19.04;100.00;147512.56;5053335;28;20370;-77
2022/09/01 07:56:08;;;;;;;;;;;;;;;19.09;100.00;147525.34;5053309;28;19963;-81
2022/09/01 07:58:34;;;;;;;;;;;;;;;19.10;100.00;147527.94;5052980;28;20004;-76
2022/09/01 08:01:02;;;;;;;;;;;;;;;19.24;100.00;147562.50;5053298;28;19917;-75
2022/09/01 08:03:28;;;;;;;;;;;;;;;19.84;100.00;147712.31;5053247;28;20362;-74
2022/09/01 08:05:58;;;;;;;;;;;;;;;20.49;100.00;147874.97;5053015;28;20647;-75
2022/09/01 08:08:23;;;;;;;;;;;;;;;20.75;100.00;147940.38;5053421;28;19917;-82
2022/09/01 08:10:48;;;;;;;;;;;;;;;20.84;100.00;147962.19;5053692;28;20023;-83
2022/09/01 08:13:17;;;;;;;;;;;;;;;21.04;100.00;148010.91;5052887;28;19975;-80
2022/09/01 08:15:42;;;;;;;;;;;;;;;21.16;100.00;148041.63;5053130;28;19941;-77
2022/09/01 08:18:08;;;;;;;;;;;;;;;21.60;100.00;148150.66;5052859;28;19925;-75
2022/09/01 08:20:38;;;;;;;;;;;;;;;21.61;100.00;148154.50;5052750;28;20011;-80
2022/09/01 08:23:06;;;;;;;;;;;;;;;21.56;100.00;148140.41;5053673;28;19985;-79
2022/09/01 08:25:32;;;;;;;;;;;;;;;21.60;100.00;148150.66;5053813;28;19917;-82
2022/09/01 08:27:58;;;;;;;;;;;;;;;21.27;100.00;148068.53;5052634;28;19912;-77
2022/09/01 08:30:23;;;;;;;;;;;;;;;21.33;100.00;148083.91;5053577;28;20365;-78
2022/09/01 08:32:49;;;;;;;;;;;;;;;21.60;100.00;148150.66;5053458;28;19963;-82
2022/09/01 08:35:15;;;;;;;;;;;;;;;20.75;100.00;147940.38;5053100;28;19929;-82
2022/09/01 08:37:41;;;;;;;;;;;;;;;20.67;100.00;147919.88;5053567;28;20019;-82
2022/09/01 08:40:06;;;;;;;;;;;;;;;21.14;100.00;148036.50;5053292;28;19987;-84
2022/09/01 08:42:52;;;;;;;;;;;;;;;21.35;100.00;148089.06;5053143;28;19924;-84
2022/09/01 08:45:20;;;;;;;;;;;;;;;21.45;100.00;148114.69;5053363;28;19913;-82
2022/09/01 08:47:46;;;;;;;;;;;;;;;21.34;100.00;148087.75;5053146;28;19940;-84
2022/09/01 08:50:11;;;;;;;;;;;;;;;21.56;100.00;148141.66;5053230;28;20373;-81
2022/09/01 08:52:46;;;;;;;;;;;;;;;21.36;100.00;148091.59;5053686;28;19916;-80
2022/09/01 08:55:16;;;;;;;;;;;;;;;21.86;100.00;148216.03;5052293;28;19959;-83
2022/09/01 08:57:44;;;;;;;;;;;;;;;21.85;100.00;148214.75;5053569;28;20427;-81
2022/09/01 09:00:12;;;;;;;;;;;;;;;21.94;100.00;148235.25;5053387;28;19928;-82
2022/09/01 09:02:50;;;;;;;;;;;;;;;21.83;100.00;148209.63;5053473;28;19917;-83
2022/09/01 09:05:22;;;;;;;;;;;;;;;21.80;100.00;148201.94;5054132;28;19917;-81
2022/09/01 09:08:06;;;;;;;;;;;;;;;22.13;100.00;148282.75;5051302;28;19913;-77
2022/09/01 09:10:40;;;;;;;;;;;;;;;21.92;100.00;148230.16;5050598;28;19920;-75
2022/09/01 09:13:11;;;;;;;;;;;;;;;21.92;100.00;148230.16;5051466;28;19956;-81
2022/09/01 09:15:50;;;;;;;;;;;;;;;21.93;100.00;148234.00;5051744;28;19921;-80
2022/09/01 09:18:24;;;;;;;;;;;;;;;22.32;100.00;148330.25;5050722;28;19924;-79
2022/09/01 09:20:50;;;;;;;;;;;;;;;21.78;100.00;148195.50;5051792;28;19917;-76
2022/09/01 09:23:23;;;;;;;;;;;;;;;21.64;100.00;148162.22;5050860;28;20372;-74
2022/09/01 09:25:49;;;;;;;;;;;;;;;21.82;100.00;148207.06;5051526;28;19966;-80
2022/09/01 09:28:15;;;;;;;;;;;;;;;21.90;100.00;148226.28;5051663;28;19943;-79
2022/09/01 09:30:40;;;;;;;;;;;;;;;21.78;100.00;148196.84;5051384;28;20357;-79
2022/09/01 09:33:09;;;;;;;;;;;;;;;21.51;100.00;148128.84;5051361;28;20331;-80
2022/09/01 09:35:35;;;;;;;;;;;;;;;21.48;100.00;148121.13;5051719;28;19927;-77
2022/09/01 09:38:17;;;;;;;;;;;;;;;21.50;100.00;148126.28;5051128;28;19921;-81
2022/09/01 09:40:59;;;;;;;;;;;;;;;21.58;100.00;148146.81;5051822;28;19924;-76
2022/09/01 09:43:28;;;;;;;;;;;;;;;21.32;100.00;148081.38;5051086;28;19936;-83
2022/09/01 09:46:13;;;;;;;;;;;;;;;21.92;100.00;148230.16;5051047;28;20373;-74
2022/09/01 09:48:38;;;;;;;;;;;;;;;21.84;100.00;148210.91;5051163;28;19920;-74
2022/09/01 09:51:18;;;;;;;;;;;;;;;21.79;100.00;148198.09;5051180;28;19924;-76
2022/09/01 09:53:44;;;;;;;;;;;;;;;21.83;100.00;148209.63;5051383;28;19944;-77
2022/09/01 09:56:09;;;;;;;;;;;;;;;21.94;100.00;148235.25;5051184;28;20280;-80
2022/09/01 09:58:40;;;;;;;;;;;;;;;21.94;100.00;148236.56;5050602;28;19988;-76
2022/09/01 10:01:15;;;;;;;;;;;;;;;22.11;100.00;148278.91;5034367;28;19948;-79
2022/09/01 10:03:57;;;;;;;;;;;;;;;21.98;100.00;148245.53;5051167;28;19972;-85
2022/09/01 10:06:37;;;;;;;;;;;;;;;21.81;100.00;148203.22;5050479;28;19917;-81
2022/09/01 10:09:06;;;;;;;;;;;;;;;22.23;100.00;148309.69;5050631;28;20395;-75
2022/09/01 10:11:37;;;;;;;;;;;;;;;22.39;100.00;148348.22;5051244;28;20003;-76
2022/09/01 10:14:19;;;;;;;;;;;;;;;21.92;100.00;148230.16;5050220;28;19924;-77
2022/09/01 10:16:46;;;;;;;;;;;;;;;22.09;100.00;148273.75;5051624;28;20007;-73
2022/09/01 10:19:13;;;;;;;;;;;;;;;22.50;100.00;148376.44;5050033;28;19944;-74
2022/09/01 10:21:40;;;;;;;;;;;;;;;22.69;100.00;148422.63;5050854;28;19920;-80
2022/09/01 10:24:24;;;;;;;;;;;;;;;22.65;100.00;148412.34;5050887;28;19917;-75
2022/09/01 10:26:51;;;;;;;;;;;;;;;22.45;100.00;148363.63;5050820;28;20013;-81
2022/09/01 10:29:20;;;;;;;;;;;;;;;22.83;100.00;148457.25;5050818;28;19925;-79
2022/09/01 10:31:45;;;;;;;;;;;;;;;23.06;100.00;148515.03;5050781;28;19923;-79
2022/09/01 10:34:16;;;;;;;;;;;;;;;23.27;100.00;148567.66;5033088;28;19920;-77
2022/09/01 10:36:43;;;;;;;;;;;;;;;22.88;100.00;148471.34;5051394;28;19990;-80
2022/09/01 10:39:15;;;;;;;;;;;;;;;22.85;100.00;148463.66;5051739;28;19928;-81
2022/09/01 10:41:52;;;;;;;;;;;;;;;22.68;100.00;148421.31;5050608;28;19917;-81
2022/09/01 10:44:29;;;;;;;;;;;;;;;22.75;100.00;148439.28;5051899;28;19924;-83
2022/09/01 10:46:55;;;;;;;;;;;;;;;23.01;100.00;148502.16;5050648;28;19916;-77
2022/09/01 10:49:27;;;;;;;;;;;;;;;22.84;100.00;148459.81;5050642;28;20369;-77
2022/09/01 10:51:53;;;;;;;;;;;;;;;23.33;100.00;148581.78;5051467;28;20031;-81
2022/09/01 10:54:39;;;;;;;;;;;;;;;23.11;100.00;148527.88;5051281;28;20281;-79
2022/09/01 10:57:23;;;;;;;;;;;;;;;23.40;100.00;148599.75;5051543;28;19916;-81
2022/09/01 10:59:48;;;;;;;;;;;;;;;23.53;100.00;148631.88;5051409;28;20003;-77
2022/09/01 11:02:19;;;;;;;;;;;;;;;23.50;100.00;148625.44;5050252;28;20014;-80
2022/09/01 11:04:45;;;;;;;;;;;;;;;23.91;100.00;148728.22;5051310;28;20328;-80
2022/09/01 11:07:22;;;;;;;;;;;;;;;23.87;100.00;148717.94;5050631;28;19917;-83
2022/09/01 11:10:06;;;;;;;;;;;;;;;23.56;100.00;148640.84;5050480;28;19916;-80
2022/09/01 11:12:42;;;;;;;;;;;;;;;23.54;100.00;148635.72;5051030;28;19917;-81
2022/09/01 11:15:13;;;;;;;;;;;;;;;23.51;100.00;148628.00;5051000;28;19917;-81
2022/09/01 11:17:59;;;;;;;;;;;;;;;23.37;100.00;148592.03;5051551;28;19913;-81
2022/09/01 11:20:26;;;;;;;;;;;;;;;23.34;100.00;148584.34;5054170;28;19916;-81
2022/09/01 11:23:01;;;;;;;;;;;;;;;23.10;100.00;148525.31;5054560;28;19917;-80
2022/09/01 11:25:32;;;;;;;;;;;;;;;23.24;100.00;148559.97;5055461;28;19962;-81
2022/09/01 11:28:18;;;;;;;;;;;;;;;23.49;100.00;148622.84;5054838;28;19913;-81
2022/09/01 11:30:51;;;;;;;;;;;;;;;23.22;100.00;148556.09;5044476;28;20035;-83
2022/09/01 11:33:26;;;;;;;;;;;;;;;23.25;100.00;148563.81;5054767;28;19928;-77
2022/09/01 11:35:59;;;;;;;;;;;;;;;23.49;100.00;148622.84;5053066;28;20561;-77
2022/09/01 11:38:26;;;;;;;;;;;;;;;23.97;100.00;148742.31;5053391;28;19917;-77
2022/09/01 11:40:55;;;;;;;;;;;;;;;24.31;100.00;148828.34;5053419;28;19913;-76
2022/09/01 11:43:23;;;;;;;;;;;;;;;24.01;100.00;148753.88;5052985;28;19924;-75
2022/09/01 11:45:57;;;;;;;;;;;;;;;23.74;100.00;148684.47;5053101;28;19940;-81
2022/09/01 11:48:24;;;;;;;;;;;;;;;23.97;100.00;148742.31;5053354;28;19983;-74
2022/09/01 11:50:56;;;;;;;;;;;;;;;23.77;100.00;148692.19;5052308;28;19917;-80
2022/09/01 11:53:22;;;;;;;;;;;;;;;24.06;100.00;148765.44;5053181;28;19924;-76
2022/09/01 11:55:49;;;;;;;;;;;;;;;23.79;100.00;148698.63;5053461;28;19921;-78
2022/09/01 11:58:26;;;;;;;;;;;;;;;23.96;100.00;148739.78;5052376;28;19935;-80
2022/09/01 12:00:52;;;;;;;;;;;;;;;24.14;100.00;148785.97;5052864;28;19924;-76
2022/09/01 12:03:23;;;;;;;;;;;;;;;24.00;100.00;148751.34;5052766;28;19936;-78
2022/09/01 12:05:58;;;;;;;;;;;;;;;23.81;100.00;148702.47;5053006;28;19950;-79
2022/09/01 12:08:25;;;;;;;;;;;;;;;23.74;100.00;148684.47;5054009;28;19924;-81
2022/09/01 12:11:02;;;;;;;;;;;;;;;24.14;100.00;148784.69;5052811;28;19921;-76
2022/09/01 12:13:28;;;;;;;;;;;;;;;24.14;100.00;148784.69;5053025;28;20019;-80
2022/09/01 12:15:54;;;;;;;;;;;;;;;24.13;100.00;148782.09;5051597;28;20011;-75
2022/09/01 12:18:22;;;;;;;;;;;;;;;24.42;100.00;148854.06;5052421;28;19966;-78
2022/09/01 12:20:48;;;;;;;;;;;;;;;24.19;100.00;148797.53;5051966;28;19912;-73
2022/09/01 12:23:25;;;;;;;;;;;;;;;23.79;100.00;148697.34;5052078;28;19982;-77
2022/09/01 12:25:55;;;;;;;;;;;;;;;23.96;100.00;148739.78;5052444;28;19951;-76
2022/09/01 12:28:22;;;;;;;;;;;;;;;24.47;100.00;148866.88;5052879;28;19918;-79
2022/09/01 12:30:48;;;;;;;;;;;;;;;24.47;100.00;148866.88;5052640;28;19927;-77
2022/09/01 12:33:17;;;;;;;;;;;;;;;24.16;100.00;148789.81;5052334;28;19925;-78
2022/09/01 12:35:42;;;;;;;;;;;;;;;24.67;100.00;148918.34;5052144;28;19943;-76
2022/09/01 12:38:20;;;;;;;;;;;;;;;24.64;100.00;148910.66;5052507;28;20373;-78
2022/09/01 12:40:47;;;;;;;;;;;;;;;24.30;100.00;148824.50;5053130;28;20015;-77